createdAt,value
2018-02-23T00:02:16.582Z,63.40
2018-02-23T00:04:52.744Z,62.80
2018-02-23T00:07:42.940Z,62.70
2018-02-23T00:10:15.094Z,62.90
2018-02-23T00:12:48.035Z,62.60
2018-02-23T00:15:18.713Z,62.60
2018-02-23T00:17:50.534Z,62.90
2018-02-23T00:20:37.711Z,62.40
2018-02-23T00:23:10.576Z,62.80
2018-02-23T00:25:46.666Z,62.30
2018-02-23T00:28:17.064Z,62.30
2018-02-23T00:30:47.155Z,61.90
2018-02-23T00:33:21.958Z,62.20
2018-02-23T00:35:54.186Z,62.80
2018-02-23T00:38:24.134Z,62.70
2018-02-23T00:40:54.593Z,63.20
2018-02-23T00:43:33.705Z,63.10
2018-02-23T00:46:06.752Z,63.40
2018-02-23T00:48:39.080Z,63.20
2018-02-23T00:51:12.567Z,63.50
2018-02-23T00:53:42.581Z,63.80
2018-02-23T00:56:12.308Z,63.90
2018-02-23T00:58:54.221Z,64.30
2018-02-23T01:01:24.294Z,64.40
2018-02-23T01:04:07.299Z,64.60
2018-02-23T01:06:37.036Z,65.00
2018-02-23T01:09:06.756Z,65.00
2018-02-23T01:11:40.601Z,65.30
2018-02-23T01:14:14.034Z,65.30
2018-02-23T01:16:53.217Z,65.60
2018-02-23T01:19:24.304Z,65.90
2018-02-23T01:22:05.892Z,66.10
2018-02-23T01:24:37.667Z,66.00
2018-02-23T01:27:08.516Z,66.30
2018-02-23T01:29:39.427Z,66.30
2018-02-23T01:32:09.664Z,66.20
2018-02-23T01:34:40.952Z,65.90
2018-02-23T01:37:18.094Z,66.00
2018-02-23T01:39:48.828Z,65.90
2018-02-23T01:42:18.645Z,65.50
2018-02-23T01:44:58.723Z,65.00
2018-02-23T01:47:30.598Z,65.00
2018-02-23T01:50:02.550Z,65.10
2018-02-23T01:52:34.476Z,64.70
2018-02-23T01:55:05.871Z,64.40
2018-02-23T01:57:41.203Z,64.30
2018-02-23T02:00:12.128Z,64.70
2018-02-23T02:02:41.946Z,64.80
2018-02-23T02:05:13.194Z,64.80
2018-02-23T02:07:44.562Z,64.80
2018-02-23T02:10:15.044Z,64.60
2018-02-23T02:12:46.326Z,64.20
2018-02-23T02:15:16.661Z,64.20
2018-02-23T02:17:47.879Z,63.50
2018-02-23T02:20:19.213Z,63.40
2018-02-23T02:22:49.712Z,63.40
2018-02-23T02:25:24.570Z,63.40
2018-02-23T02:27:55.210Z,63.40
2018-02-23T02:30:25.399Z,63.40
2018-02-23T02:32:55.684Z,63.20
2018-02-23T02:35:25.312Z,62.60
2018-02-23T02:37:57.919Z,62.60
2018-02-23T02:40:39.413Z,62.20
2018-02-23T02:43:10.775Z,61.90
2018-02-23T02:45:40.178Z,61.00
2018-02-23T02:48:11.423Z,61.30
2018-02-23T02:50:44.814Z,61.20
2018-02-23T02:53:15.784Z,60.90
2018-02-23T02:55:45.802Z,60.60
2018-02-23T02:58:20.194Z,60.00
2018-02-23T03:00:49.668Z,60.80
2018-02-23T03:03:19.770Z,60.70
2018-02-23T03:05:51.807Z,60.00
2018-02-23T03:08:22.276Z,60.00
2018-02-23T03:10:51.882Z,59.60
2018-02-23T03:13:29.667Z,59.10
2018-02-23T03:16:06.880Z,58.60
2018-02-23T03:18:45.842Z,58.60
2018-02-23T03:21:23.633Z,58.10
2018-02-23T03:24:06.318Z,58.20
2018-02-23T03:26:48.813Z,58.50
2018-02-23T03:29:28.549Z,58.60
2018-02-23T03:32:06.694Z,58.60
2018-02-23T03:34:49.913Z,58.30
2018-02-23T03:37:30.718Z,58.80
2018-02-23T03:40:03.253Z,59.00
2018-02-23T03:42:32.520Z,59.40
2018-02-23T03:45:03.565Z,59.60
2018-02-23T03:47:33.288Z,60.00
2018-02-23T03:50:04.445Z,60.00
2018-02-23T03:52:35.562Z,60.30
2018-02-23T03:55:05.974Z,60.50
2018-02-23T03:57:36.458Z,60.60
2018-02-23T04:00:07.561Z,60.20
2018-02-23T04:02:37.574Z,60.50
2018-02-23T04:05:08.346Z,61.20
2018-02-23T04:07:40.191Z,61.30
2018-02-23T04:10:16.335Z,61.20
2018-02-23T04:12:50.376Z,61.50
2018-02-23T04:15:22.771Z,61.80
2018-02-23T04:17:54.078Z,62.00
2018-02-23T04:20:25.612Z,62.10
2018-02-23T04:22:56.250Z,62.30
2018-02-23T04:25:27.294Z,62.20
2018-02-23T04:27:58.423Z,62.40
2018-02-23T04:30:33.281Z,62.40
2018-02-23T04:33:04.134Z,62.20
2018-02-23T04:36:29.389Z,61.80
2018-02-23T04:39:21.339Z,61.40
2018-02-23T04:41:52.387Z,61.00
2018-02-23T04:44:24.467Z,61.10
2018-02-23T04:46:55.311Z,61.20
2018-02-23T04:49:32.776Z,61.40
2018-02-23T04:52:08.566Z,61.10
2018-02-23T04:54:43.165Z,60.70
2018-02-23T04:57:14.274Z,60.60
2018-02-23T04:59:45.639Z,61.10
2018-02-23T05:02:16.575Z,60.50
2018-02-23T05:04:52.637Z,60.40
2018-02-23T05:07:27.547Z,60.00
2018-02-23T05:10:18.587Z,59.90
2018-02-23T05:12:50.252Z,59.70
2018-02-23T05:15:19.912Z,59.50
2018-02-23T05:17:50.413Z,59.50
2018-02-23T05:20:34.591Z,59.60
2018-02-23T05:23:30.834Z,59.50
2018-02-23T05:26:11.650Z,59.40
2018-02-23T05:28:59.806Z,59.30
2018-02-23T05:31:31.035Z,59.50
2018-02-23T05:34:04.103Z,59.70
2018-02-23T05:36:36.999Z,60.00
2018-02-23T05:39:10.584Z,60.00
2018-02-23T05:41:42.691Z,60.90
2018-02-23T05:44:16.609Z,60.30
2018-02-23T05:46:48.326Z,60.70
2018-02-23T05:49:40.862Z,60.70
2018-02-23T05:52:12.105Z,60.90
2018-02-23T05:54:45.093Z,60.80
2018-02-23T05:57:24.188Z,60.80
2018-02-23T05:59:59.205Z,61.20
2018-02-23T06:02:31.417Z,61.60
2018-02-23T06:05:02.566Z,61.60
2018-02-23T06:07:36.205Z,61.90
2018-02-23T06:13:30.455Z,62.60
2018-02-23T06:16:05.456Z,62.60
2018-02-23T06:18:47.936Z,63.30
2018-02-23T06:21:28.777Z,63.70
2018-02-23T06:24:02.285Z,64.30
2018-02-23T06:26:33.938Z,64.30
2018-02-23T06:29:09.476Z,64.60
2018-02-23T06:32:36.117Z,65.00
2018-02-23T06:39:06.906Z,66.40
2018-02-23T06:43:13.748Z,66.00
2018-02-23T06:45:53.333Z,66.10
2018-02-23T06:51:15.512Z,66.50
2018-02-23T06:53:46.668Z,66.60
2018-02-23T06:56:44.713Z,66.50
2018-02-23T07:02:33.142Z,66.70
2018-02-23T07:05:05.336Z,66.80
2018-02-23T07:07:37.814Z,66.70
2018-02-23T07:10:09.362Z,66.70
2018-02-23T07:12:49.909Z,66.50
2018-02-23T07:15:20.472Z,66.50
2018-02-23T07:18:04.889Z,66.30
2018-02-23T07:21:06.800Z,66.40
2018-02-23T07:23:40.021Z,66.20
2018-02-23T07:26:28.921Z,66.00
2018-02-23T07:29:00.807Z,65.60
2018-02-23T07:31:37.279Z,65.20
2018-02-23T07:34:11.804Z,65.20
2018-02-23T07:40:00.540Z,64.60
2018-02-23T07:42:30.866Z,63.30
2018-02-23T07:48:37.257Z,52.80
2018-02-23T07:51:49.917Z,50.40
2018-02-23T07:54:56.067Z,49.10
2018-02-23T07:57:33.531Z,47.70
2018-02-23T08:00:04.905Z,46.60
2018-02-23T08:02:42.499Z,46.50
2018-02-23T08:05:22.907Z,46.60
2018-02-23T08:08:10.087Z,46.60
2018-02-23T08:10:46.765Z,46.80
2018-02-23T08:13:22.674Z,46.60
2018-02-23T08:16:19.713Z,45.60
2018-02-23T08:19:54.120Z,45.90
2018-02-23T08:22:40.438Z,45.70
2018-02-23T08:25:47.927Z,43.90
2018-02-23T08:31:48.666Z,48.70
2018-02-23T08:35:30.552Z,48.80
2018-02-23T08:38:39.732Z,48.00
2018-02-23T08:41:13.294Z,46.50
2018-02-23T08:43:47.048Z,46.50
2018-02-23T08:46:22.023Z,47.40
2018-02-23T08:48:52.656Z,48.00
2018-02-23T08:51:23.815Z,48.00
2018-02-23T08:53:56.579Z,46.70
2018-02-23T08:56:31.913Z,47.10
2018-02-23T08:59:02.808Z,48.50
2018-02-23T09:01:51.925Z,49.00
2018-02-23T09:04:23.292Z,47.20
2018-02-23T09:06:55.292Z,46.50
2018-02-23T09:09:26.211Z,50.30
2018-02-23T09:11:56.135Z,50.20
2018-02-23T09:14:27.267Z,51.70
2018-02-23T09:16:59.605Z,52.60
2018-02-23T09:19:47.033Z,53.10
2018-02-23T09:22:41.152Z,53.40
2018-02-23T09:25:36.902Z,53.60
2018-02-23T09:29:55.588Z,54.20
2018-02-23T09:35:57.117Z,53.90
2018-02-23T09:38:40.267Z,53.80
2018-02-23T09:41:51.481Z,53.60
2018-02-23T09:44:47.951Z,53.40
2018-02-23T09:47:23.973Z,53.30
2018-02-23T09:50:02.944Z,53.30
2018-02-23T09:53:27.975Z,52.50
2018-02-23T09:59:57.179Z,52.60
2018-02-23T10:02:37.330Z,52.60
2018-02-23T10:05:27.084Z,52.20
2018-02-23T10:07:58.663Z,52.20
2018-02-23T10:10:29.916Z,51.90
2018-02-23T10:13:07.318Z,51.90
2018-02-23T10:16:23.084Z,52.00
2018-02-23T10:18:55.781Z,51.50
2018-02-23T10:21:36.706Z,52.10
2018-02-23T10:24:13.309Z,52.80
2018-02-23T10:26:58.350Z,53.20
2018-02-23T10:30:05.970Z,52.50
2018-02-23T10:32:47.904Z,52.70
2018-02-23T10:35:25.144Z,52.00
2018-02-23T10:38:08.586Z,51.80
2018-02-23T10:40:40.223Z,52.20
2018-02-23T10:46:47.654Z,51.60
2018-02-23T10:51:59.077Z,52.00
2018-02-23T10:54:37.347Z,51.40
2018-02-23T10:57:31.139Z,51.00
2018-02-23T11:00:33.023Z,51.00
2018-02-23T11:06:45.635Z,51.60
2018-02-23T11:09:33.627Z,51.60
2018-02-23T11:12:05.649Z,51.90
2018-02-23T11:14:42.536Z,51.20
2018-02-23T11:17:13.008Z,51.40
2018-02-23T11:19:47.177Z,50.90
2018-02-23T11:22:18.432Z,50.50
2018-02-23T11:24:53.634Z,51.30
2018-02-23T11:27:28.645Z,51.40
2018-02-23T11:30:05.225Z,50.80
2018-02-23T11:35:58.211Z,51.50
2018-02-23T11:38:31.559Z,51.30
2018-02-23T11:41:02.173Z,51.70
2018-02-23T11:43:54.275Z,51.10
2018-02-23T11:46:24.212Z,50.90
2018-02-23T11:48:58.197Z,51.10
2018-02-23T11:51:29.707Z,51.80
2018-02-23T11:54:18.205Z,51.30
2018-02-23T11:56:52.046Z,51.00
2018-02-23T11:59:24.583Z,51.40
2018-02-23T12:01:58.085Z,50.70
2018-02-23T12:07:51.274Z,50.50
2018-02-23T12:10:52.181Z,50.30
2018-02-23T12:13:25.805Z,49.20
2018-02-23T12:16:02.168Z,49.80
2018-02-23T12:18:45.204Z,50.50
2018-02-23T12:21:39.432Z,50.20
2018-02-23T12:24:45.265Z,49.60
2018-02-23T12:30:07.423Z,49.10
2018-02-23T12:32:55.450Z,48.80
2018-02-23T12:35:31.988Z,48.70
2018-02-23T12:38:17.086Z,47.50
2018-02-23T12:40:49.858Z,47.30
2018-02-23T12:43:21.617Z,46.50
2018-02-23T12:50:48.254Z,46.90
2018-02-23T12:54:42.453Z,46.30
2018-02-23T13:11:14.107Z,45.50
2018-02-23T13:13:56.917Z,45.40
2018-02-23T13:17:21.858Z,45.30
2018-02-23T13:20:14.626Z,45.50
2018-02-23T13:23:16.030Z,44.90
2018-02-23T13:25:51.421Z,45.80
2018-02-23T13:32:32.991Z,45.90
2018-02-23T13:36:04.064Z,46.90
2018-02-23T13:38:58.307Z,47.80
2018-02-23T13:42:12.538Z,47.40
2018-02-23T13:45:31.744Z,47.10
2018-02-23T13:48:06.334Z,47.10
2018-02-23T13:51:21.613Z,46.30
2018-02-23T13:54:38.024Z,45.60
2018-02-23T14:00:25.647Z,46.10
2018-02-23T14:02:59.652Z,45.70
2018-02-23T14:06:07.985Z,46.30
2018-02-23T14:08:52.779Z,45.90
2018-02-23T14:11:27.026Z,45.40
2018-02-23T14:18:03.176Z,45.60
2018-02-23T14:21:37.377Z,45.30
2018-02-23T14:30:23.994Z,45.50
2018-02-23T14:33:23.993Z,45.90
2018-02-23T14:40:00.042Z,45.30
2018-02-23T14:42:32.411Z,45.30
2018-02-23T14:45:05.773Z,44.50
2018-02-23T14:48:21.733Z,44.50
2018-02-23T14:51:13.726Z,44.50
2018-02-23T14:53:56.744Z,44.70
2018-02-23T14:56:33.404Z,44.70
2018-02-23T14:59:35.594Z,44.80
2018-02-23T15:02:26.832Z,44.20
2018-02-23T15:05:26.294Z,44.20
2018-02-23T15:08:05.072Z,44.30
2018-02-23T15:10:59.261Z,44.80
2018-02-23T15:17:31.105Z,44.60
2018-02-23T15:20:02.276Z,44.90
2018-02-23T15:22:35.915Z,44.50
2018-02-23T15:25:44.756Z,44.30
2018-02-23T15:28:22.493Z,44.30
2018-02-23T15:34:27.830Z,45.50
2018-02-23T15:37:26.419Z,45.20
2018-02-23T15:40:31.098Z,46.00
2018-02-23T15:43:31.949Z,46.10
2018-02-23T15:46:09.698Z,46.50
2018-02-23T15:48:43.833Z,47.60
2018-02-23T15:51:24.026Z,48.20
2018-02-23T15:54:08.373Z,49.10
2018-02-23T15:56:49.058Z,49.30
2018-02-23T15:59:31.043Z,52.20
2018-02-23T16:05:08.443Z,53.30
2018-02-23T16:07:46.841Z,52.50
2018-02-23T16:10:24.482Z,52.40
2018-02-23T16:13:25.714Z,52.10
2018-02-23T16:15:57.631Z,52.10
2018-02-23T16:19:11.012Z,52.20
2018-02-23T16:27:27.745Z,52.20
2018-02-23T16:30:00.311Z,52.20
2018-02-23T16:32:45.233Z,51.90
2018-02-23T16:35:24.931Z,52.20
2018-02-23T16:38:01.933Z,52.50
2018-02-23T16:40:41.815Z,52.30
2018-02-23T16:43:27.966Z,52.20
2018-02-23T16:46:28.469Z,52.70
2018-02-23T17:02:12.130Z,54.10
2018-02-23T17:04:53.401Z,54.20
2018-02-23T17:07:23.911Z,54.30
2018-02-23T17:10:17.906Z,54.80
2018-02-23T17:17:01.120Z,55.60
2018-02-23T17:19:47.903Z,56.60
2018-02-23T17:28:56.247Z,57.80
2018-02-23T17:34:58.896Z,58.80
2018-02-23T17:37:37.625Z,58.10
2018-02-23T17:40:10.920Z,58.50
2018-02-23T17:57:35.856Z,58.70
2018-02-23T18:07:41.687Z,59.00
2018-02-23T18:15:07.534Z,59.10
2018-02-23T18:21:31.392Z,59.20
2018-02-23T18:24:30.823Z,59.80
2018-02-23T18:27:15.994Z,59.70
2018-02-23T18:31:24.104Z,60.00
2018-02-23T18:36:53.272Z,59.60
2018-02-23T18:39:33.316Z,59.50
2018-02-23T22:19:54.185Z,62.20
2018-02-23T22:22:43.518Z,62.40
2018-02-23T22:25:17.831Z,62.40
2018-02-23T22:27:49.465Z,62.40
2018-02-23T22:30:18.929Z,62.30
2018-02-23T22:32:54.496Z,62.00
2018-02-23T22:35:24.804Z,61.30
2018-02-23T22:37:55.154Z,61.20
2018-02-23T22:40:24.521Z,61.00
2018-02-23T22:43:00.973Z,60.80
2018-02-23T22:45:33.517Z,60.90
2018-02-23T22:48:04.187Z,61.60
2018-02-23T22:50:33.520Z,60.40
2018-02-23T22:53:04.460Z,60.00
2018-02-23T22:55:33.804Z,60.30
2018-02-23T22:58:04.057Z,60.50
2018-02-23T23:00:33.451Z,60.60
2018-02-23T23:03:02.294Z,60.90
2018-02-23T23:05:31.404Z,62.10
2018-02-23T23:08:01.253Z,62.40
2018-02-23T23:10:31.402Z,63.00
2018-02-23T23:13:00.506Z,63.10
2018-02-23T23:15:33.918Z,63.10
2018-02-23T23:18:03.581Z,63.10
2018-02-23T23:20:34.860Z,62.90
2018-02-23T23:23:05.081Z,62.90
2018-02-23T23:25:35.097Z,62.20
2018-02-23T23:28:04.598Z,62.00
2018-02-23T23:30:33.439Z,62.30
2018-02-23T23:33:23.688Z,62.50
2018-02-23T23:35:53.660Z,62.20
2018-02-23T23:38:23.214Z,62.20
2018-02-23T23:40:53.503Z,61.80
2018-02-23T23:43:23.795Z,61.90
2018-02-23T23:46:04.342Z,62.00
2018-02-23T23:48:50.644Z,62.20
2018-02-23T23:51:21.111Z,62.20
2018-02-23T23:53:53.133Z,62.30
2018-02-23T23:56:24.250Z,62.20
2018-02-23T23:58:53.964Z,62.20
